createdAt,value
2017-09-13T00:00:26.418Z,49.63
2017-09-13T00:02:55.044Z,41.53
2017-09-13T00:05:23.620Z,45.67
2017-09-13T00:07:52.511Z,44.93
2017-09-13T00:10:21.289Z,35.60
2017-09-13T00:12:49.832Z,44.90
2017-09-13T00:15:19.562Z,35.77
2017-09-13T00:17:48.377Z,42.97
2017-09-13T00:20:16.817Z,40.83
2017-09-13T00:22:46.142Z,40.53
2017-09-13T00:25:14.766Z,35.17
2017-09-13T00:27:43.229Z,44.47
2017-09-13T00:30:11.828Z,36.20
2017-09-13T00:32:40.345Z,37.30
2017-09-13T00:35:10.532Z,38.60
2017-09-13T00:37:39.558Z,33.77
2017-09-13T00:40:08.760Z,31.20
2017-09-13T00:42:37.480Z,32.60
2017-09-13T00:45:06.081Z,38.87
2017-09-13T00:47:34.490Z,42.43
2017-09-13T00:50:03.164Z,45.40
2017-09-13T00:52:32.052Z,40.80
2017-09-13T00:55:00.788Z,36.30
2017-09-13T00:57:30.252Z,40.03
2017-09-13T00:59:58.927Z,44.30
2017-09-13T01:02:27.473Z,45.83
2017-09-13T01:04:57.956Z,42.67
2017-09-13T01:07:26.568Z,42.83
2017-09-13T01:09:55.286Z,33.73
2017-09-13T01:12:23.817Z,32.87
2017-09-13T01:14:53.191Z,41.63
2017-09-13T01:17:21.741Z,31.03
2017-09-13T01:19:50.675Z,46.30
2017-09-13T01:22:19.284Z,34.43
2017-09-13T01:24:47.923Z,34.90
2017-09-13T01:27:16.052Z,39.37
2017-09-13T01:29:44.624Z,34.30
2017-09-13T01:32:13.374Z,36.53
2017-09-13T01:34:41.976Z,41.00
2017-09-13T01:37:10.588Z,37.30
2017-09-13T01:48:19.505Z,49.40
2017-09-13T01:50:48.876Z,51.23
2017-09-13T01:53:16.911Z,40.83
2017-09-13T01:55:45.740Z,33.30
2017-09-13T01:58:14.379Z,49.53
2017-09-13T02:00:43.757Z,43.43
2017-09-13T02:03:12.512Z,40.77
2017-09-13T02:05:40.842Z,41.17
2017-09-13T02:08:10.388Z,47.40
2017-09-13T02:10:39.059Z,42.13
2017-09-13T02:13:07.575Z,39.27
2017-09-13T02:15:36.156Z,35.80
2017-09-13T02:18:04.347Z,41.57
2017-09-13T02:20:32.844Z,39.13
2017-09-13T02:23:01.574Z,38.13
2017-09-13T02:25:30.168Z,35.70
2017-09-13T02:27:58.676Z,43.33
2017-09-13T02:30:27.287Z,32.00
2017-09-13T02:32:56.219Z,46.20
2017-09-13T02:37:59.372Z,40.07
2017-09-13T02:40:27.980Z,38.43
2017-09-13T02:42:56.710Z,42.90
2017-09-13T02:45:25.587Z,39.03
2017-09-13T02:47:54.094Z,44.87
2017-09-13T02:50:22.601Z,36.70
2017-09-13T02:52:51.411Z,42.33
2017-09-13T02:55:20.127Z,53.40
2017-09-13T02:57:49.545Z,41.50
2017-09-13T03:00:17.968Z,31.63
2017-09-13T03:02:46.601Z,34.37
2017-09-13T03:05:16.005Z,44.63
2017-09-13T03:07:44.869Z,41.80
2017-09-13T03:10:13.429Z,47.83
2017-09-13T03:12:41.463Z,49.80
2017-09-13T03:15:10.147Z,35.13
2017-09-13T03:17:38.175Z,54.23
2017-09-13T03:20:06.644Z,41.77
2017-09-13T03:22:35.433Z,32.97
2017-09-13T03:25:03.522Z,55.53
2017-09-13T03:27:32.291Z,39.20
2017-09-13T03:30:01.092Z,47.47
2017-09-13T03:32:29.765Z,48.43
2017-09-13T03:34:57.808Z,43.23
2017-09-13T03:37:26.448Z,55.47
2017-09-13T03:39:55.169Z,50.37
2017-09-13T03:42:24.539Z,48.63
2017-09-13T03:44:53.363Z,52.40
2017-09-13T03:47:21.645Z,53.73
2017-09-13T03:49:50.272Z,44.00
2017-09-13T03:52:19.092Z,43.23
2017-09-13T03:54:47.812Z,39.70
2017-09-13T03:57:16.317Z,48.67
2017-09-13T03:59:45.023Z,50.90
2017-09-13T04:02:13.600Z,49.00
2017-09-13T04:04:42.352Z,48.33
2017-09-13T04:07:10.899Z,60.13
2017-09-13T04:09:39.763Z,71.57
2017-09-13T04:12:08.352Z,61.47
2017-09-13T04:14:37.143Z,67.40
2017-09-13T04:17:05.812Z,81.83
2017-09-13T04:19:34.293Z,86.73
2017-09-13T04:22:03.100Z,68.03
2017-09-13T04:24:31.874Z,98.50
2017-09-13T04:27:00.356Z,80.40
2017-09-13T04:29:29.059Z,77.47
2017-09-13T04:31:57.639Z,65.03
2017-09-13T04:34:26.392Z,79.63
2017-09-13T04:36:54.987Z,73.37
2017-09-13T04:39:23.507Z,94.43
2017-09-13T04:41:52.249Z,80.37
2017-09-13T04:44:20.391Z,81.73
2017-09-13T04:46:48.974Z,102.10
2017-09-13T04:49:17.696Z,113.63
2017-09-13T04:51:46.296Z,136.37
2017-09-13T04:54:14.344Z,121.27
2017-09-13T04:56:43.723Z,112.07
2017-09-13T04:59:12.588Z,111.07
2017-09-13T05:01:41.056Z,119.93
2017-09-13T05:04:09.579Z,126.20
2017-09-13T05:06:39.593Z,130.43
2017-09-13T05:09:07.650Z,148.33
2017-09-13T05:11:36.569Z,126.67
2017-09-13T05:14:05.389Z,206.50
2017-09-13T05:16:33.819Z,163.10
2017-09-13T05:19:02.400Z,169.90
2017-09-13T05:21:31.180Z,170.23
2017-09-13T05:24:00.040Z,163.20
2017-09-13T05:26:28.568Z,158.77
2017-09-13T05:28:57.148Z,150.90
2017-09-13T05:31:25.828Z,151.23
2017-09-13T05:33:53.868Z,151.23
2017-09-13T05:36:21.983Z,168.70
2017-09-13T05:38:50.552Z,129.77
2017-09-13T05:41:19.163Z,144.23
2017-09-13T05:43:47.831Z,121.73
2017-09-13T05:46:16.608Z,115.37
2017-09-13T05:48:45.096Z,147.67
2017-09-13T05:51:13.295Z,110.43
2017-09-13T05:53:41.804Z,89.20
2017-09-13T05:56:10.638Z,97.47
2017-09-13T05:58:39.448Z,93.30
2017-09-13T06:01:07.524Z,90.43
2017-09-13T06:03:35.933Z,94.73
2017-09-13T06:06:04.827Z,84.70
2017-09-13T06:08:34.021Z,88.90
2017-09-13T06:11:02.080Z,78.93
2017-09-13T06:13:31.014Z,62.37
2017-09-13T06:15:59.064Z,65.30
2017-09-13T06:18:27.091Z,76.63
2017-09-13T06:20:55.419Z,63.53
2017-09-13T06:23:25.175Z,69.50
2017-09-13T06:25:53.276Z,50.67
2017-09-13T06:28:21.405Z,59.20
2017-09-13T06:30:50.111Z,59.83
2017-09-13T06:33:18.619Z,57.07
2017-09-13T06:35:47.412Z,62.47
2017-09-13T06:38:16.089Z,47.27
2017-09-13T06:40:44.508Z,64.67
2017-09-13T06:43:13.740Z,53.47
2017-09-13T06:45:42.256Z,56.60
2017-09-13T06:48:10.832Z,60.00
2017-09-13T06:50:39.790Z,60.37
2017-09-13T06:53:08.204Z,55.90
2017-09-13T06:55:36.680Z,55.97
2017-09-13T06:58:05.507Z,45.57
2017-09-13T07:00:34.155Z,48.83
2017-09-13T07:03:02.587Z,45.40
2017-09-13T07:05:32.600Z,45.40
2017-09-13T07:08:02.691Z,49.20
2017-09-13T07:10:32.704Z,52.67
2017-09-13T07:15:32.680Z,65.33
2017-09-13T07:18:01.987Z,96.27
2017-09-13T07:20:31.236Z,117.00
2017-09-13T07:23:00.044Z,47.07
2017-09-13T07:25:28.576Z,70.40
2017-09-13T07:27:57.833Z,53.07
2017-09-13T07:30:26.708Z,50.30
2017-09-13T07:32:55.487Z,56.50
2017-09-13T07:35:24.018Z,54.03
2017-09-13T07:37:53.360Z,47.37
2017-09-13T07:40:21.975Z,40.60
2017-09-13T07:42:50.586Z,44.17
2017-09-13T07:45:18.752Z,51.70
2017-09-13T07:47:47.324Z,43.43
2017-09-13T07:50:15.968Z,50.17
2017-09-13T07:52:44.139Z,43.63
2017-09-13T07:55:12.353Z,51.33
2017-09-13T07:57:40.771Z,44.53
2017-09-13T08:00:09.715Z,43.73
2017-09-13T08:02:38.244Z,39.57
2017-09-13T08:05:06.333Z,42.73
2017-09-13T08:07:35.981Z,36.40
2017-09-13T08:10:04.517Z,38.47
2017-09-13T08:12:33.770Z,45.10
2017-09-13T08:15:03.181Z,48.57
2017-09-13T08:17:32.164Z,39.63
2017-09-13T08:20:00.668Z,36.50
2017-09-13T08:22:28.968Z,36.60
2017-09-13T08:24:58.864Z,45.13
2017-09-13T08:27:26.927Z,47.40
2017-09-13T08:29:55.484Z,42.83
2017-09-13T08:32:24.103Z,53.20
2017-09-13T08:34:52.669Z,40.70
2017-09-13T08:37:21.338Z,51.73
2017-09-13T08:39:49.380Z,55.53
2017-09-13T08:42:18.673Z,48.23
2017-09-13T08:44:47.499Z,38.33
2017-09-13T08:47:15.899Z,44.17
2017-09-13T08:49:44.507Z,36.90
2017-09-13T08:52:13.331Z,36.13
2017-09-13T08:54:42.700Z,37.37
2017-09-13T08:57:11.312Z,36.13
2017-09-13T08:59:40.970Z,30.47
2017-09-13T09:02:09.587Z,37.90
2017-09-13T09:04:38.904Z,39.77
2017-09-13T09:07:07.088Z,39.30
2017-09-13T09:09:36.484Z,40.53
2017-09-13T09:12:06.983Z,46.70
2017-09-13T09:14:35.453Z,43.23
2017-09-13T09:17:04.089Z,42.10
2017-09-13T09:19:33.800Z,38.13
2017-09-13T09:22:03.176Z,48.63
2017-09-13T09:24:31.851Z,44.23
2017-09-13T09:27:00.371Z,38.40
2017-09-13T09:29:29.623Z,50.57
2017-09-13T09:31:58.232Z,32.83
2017-09-13T09:34:27.014Z,44.40
2017-09-13T09:36:55.764Z,38.73
2017-09-13T09:39:24.300Z,46.40
2017-09-13T09:41:53.079Z,41.47
2017-09-13T09:44:21.272Z,47.20
2017-09-13T09:46:49.775Z,43.27
2017-09-13T09:49:19.168Z,36.00
2017-09-13T09:51:47.733Z,47.30
2017-09-13T09:54:16.409Z,42.50
2017-09-13T09:56:45.403Z,52.70
2017-09-13T09:59:13.868Z,43.73
2017-09-13T10:01:42.475Z,55.20
2017-09-13T10:04:10.621Z,41.40
2017-09-13T10:06:39.287Z,35.30
2017-09-13T10:09:08.083Z,40.27
2017-09-13T10:11:36.839Z,40.00
2017-09-13T10:14:05.464Z,48.20
2017-09-13T10:16:33.940Z,40.77
2017-09-13T10:19:03.620Z,35.83
2017-09-13T10:21:32.685Z,43.27
2017-09-13T10:24:01.207Z,59.77
2017-09-13T10:26:29.967Z,42.73
2017-09-13T10:28:58.024Z,42.20
2017-09-13T10:31:26.556Z,42.63
2017-09-13T10:33:56.229Z,38.67
2017-09-13T10:36:24.704Z,39.33
2017-09-13T10:38:53.400Z,44.70
2017-09-13T10:41:22.977Z,40.53
2017-09-13T10:43:51.597Z,51.90
2017-09-13T10:46:21.236Z,36.77
2017-09-13T10:48:50.703Z,32.03
2017-09-13T10:51:19.133Z,46.63
2017-09-13T10:53:48.651Z,46.60
2017-09-13T10:56:18.032Z,40.13
2017-09-13T10:58:47.304Z,35.93
2017-09-13T11:01:15.944Z,30.13
2017-09-13T11:03:44.584Z,41.93
2017-09-13T11:06:13.160Z,42.50
2017-09-13T11:08:41.769Z,39.73
2017-09-13T11:11:10.589Z,43.43
2017-09-13T11:13:38.948Z,40.40
2017-09-13T11:16:08.505Z,40.07
2017-09-13T11:18:37.138Z,46.90
2017-09-13T11:21:05.800Z,45.47
2017-09-13T11:23:34.801Z,35.37
2017-09-13T11:26:03.604Z,36.03
2017-09-13T11:28:31.677Z,35.27
2017-09-13T11:31:00.295Z,43.87
2017-09-13T11:33:29.298Z,34.23
2017-09-13T11:35:57.902Z,44.90
2017-09-13T11:38:26.507Z,33.77
2017-09-13T11:40:55.184Z,42.97
2017-09-13T11:43:23.968Z,38.40
2017-09-13T11:45:52.491Z,36.20
2017-09-13T11:48:21.256Z,41.47
2017-09-13T11:50:49.892Z,49.57
2017-09-13T11:53:17.923Z,52.60
2017-09-13T11:55:46.096Z,47.77
2017-09-13T11:58:14.134Z,49.00
2017-09-13T12:00:42.277Z,47.27
2017-09-13T12:03:11.169Z,37.03
2017-09-13T12:05:39.980Z,42.20
2017-09-13T12:08:08.187Z,46.93
2017-09-13T12:10:36.331Z,40.07
2017-09-13T12:13:04.396Z,47.07
2017-09-13T12:15:32.858Z,39.80
2017-09-13T12:18:02.358Z,48.07
2017-09-13T12:20:30.941Z,43.07
2017-09-13T12:23:00.249Z,41.83
2017-09-13T12:25:30.108Z,39.33
2017-09-13T12:27:58.648Z,42.13
2017-09-13T12:30:28.319Z,40.57
2017-09-13T12:32:56.977Z,39.07
2017-09-13T12:35:25.546Z,43.30
2017-09-13T12:37:54.825Z,50.13
2017-09-13T12:40:23.443Z,42.90
2017-09-13T12:42:52.120Z,40.53
2017-09-13T12:45:20.840Z,40.30
2017-09-13T12:47:49.368Z,44.27
2017-09-13T12:50:17.844Z,38.67
2017-09-13T12:52:46.564Z,52.23
2017-09-13T12:55:16.015Z,37.10
2017-09-13T12:57:44.697Z,44.43
2017-09-13T13:00:12.756Z,44.33
2017-09-13T13:02:41.500Z,42.00
2017-09-13T13:05:10.764Z,35.27
2017-09-13T13:07:39.376Z,48.83
2017-09-13T13:10:07.900Z,43.67
2017-09-13T13:12:36.443Z,36.03
2017-09-13T13:15:04.526Z,39.03
2017-09-13T13:17:34.162Z,40.30
2017-09-13T13:20:02.208Z,41.97
2017-09-13T13:22:30.975Z,45.73
2017-09-13T13:24:59.886Z,41.03
2017-09-13T13:27:29.544Z,36.27
2017-09-13T13:29:57.595Z,44.60
2017-09-13T13:32:26.370Z,43.33
2017-09-13T13:34:55.884Z,38.40
2017-09-13T13:37:25.156Z,49.60
2017-09-13T13:39:53.916Z,39.20
2017-09-13T13:42:22.425Z,44.93
2017-09-13T13:44:50.924Z,39.60
2017-09-13T13:47:20.378Z,41.57
2017-09-13T13:49:48.893Z,47.53
2017-09-13T13:52:17.428Z,54.30
2017-09-13T13:54:46.230Z,34.43
2017-09-13T13:57:14.773Z,44.70
2017-09-13T13:59:44.172Z,52.20
2017-09-13T14:02:13.700Z,51.03
2017-09-13T14:04:42.126Z,38.87
2017-09-13T14:07:10.711Z,48.20
2017-09-13T14:09:38.868Z,47.53
2017-09-13T14:12:06.940Z,37.03
2017-09-13T14:14:34.997Z,44.33
2017-09-13T14:17:03.275Z,39.70
2017-09-13T14:19:31.596Z,40.27
2017-09-13T14:21:59.964Z,44.83
2017-09-13T14:24:28.096Z,41.47
2017-09-13T14:26:57.050Z,46.33
2017-09-13T14:29:25.489Z,37.63
2017-09-13T14:31:53.604Z,39.93
2017-09-13T14:34:21.660Z,45.80
2017-09-13T14:36:49.736Z,45.67
2017-09-13T14:39:17.961Z,46.10
2017-09-13T14:41:46.020Z,35.43
2017-09-13T14:44:15.181Z,39.17
2017-09-13T14:46:43.980Z,35.27
2017-09-13T14:49:12.653Z,47.93
2017-09-13T14:51:41.306Z,39.23
2017-09-13T14:54:10.354Z,40.80
2017-09-13T14:56:38.876Z,41.93
2017-09-13T14:59:08.114Z,40.20
2017-09-13T15:01:36.849Z,45.33
2017-09-13T15:04:06.098Z,43.63
2017-09-13T15:06:34.601Z,44.60
2017-09-13T15:09:03.412Z,44.37
2017-09-13T15:11:32.160Z,39.13
2017-09-13T15:14:00.646Z,38.93
2017-09-13T15:16:29.281Z,47.67
2017-09-13T15:18:58.628Z,44.77
2017-09-13T15:21:27.436Z,51.57
2017-09-13T15:23:56.331Z,39.27
2017-09-13T15:26:25.115Z,43.03
2017-09-13T15:28:54.733Z,39.63
2017-09-13T15:31:23.606Z,42.07
2017-09-13T15:33:52.299Z,39.53
2017-09-13T15:36:20.344Z,51.40
2017-09-13T15:38:49.002Z,42.27
2017-09-13T15:41:18.409Z,41.77
2017-09-13T15:43:47.960Z,44.97
2017-09-13T15:46:16.691Z,36.93
2017-09-13T15:48:45.283Z,41.13
2017-09-13T15:51:14.453Z,35.73
2017-09-13T15:53:43.236Z,39.47
2017-09-13T15:56:11.292Z,42.57
2017-09-13T15:58:39.335Z,44.00
2017-09-13T16:01:08.716Z,40.70
2017-09-13T16:03:37.196Z,46.40
2017-09-13T16:06:05.244Z,51.63
2017-09-13T16:08:34.031Z,33.57
2017-09-13T16:11:02.647Z,39.33
2017-09-13T16:13:31.186Z,42.50
2017-09-13T16:16:00.702Z,39.43
2017-09-13T16:18:29.355Z,43.77
2017-09-13T16:20:57.883Z,56.57
2017-09-13T16:23:26.015Z,42.63
2017-09-13T16:25:54.074Z,40.83
2017-09-13T16:28:23.435Z,41.33
2017-09-13T16:30:52.244Z,39.67
2017-09-13T16:33:21.728Z,49.10
2017-09-13T16:35:50.309Z,41.53
2017-09-13T16:38:18.951Z,35.53
2017-09-13T16:40:47.409Z,36.40
2017-09-13T16:43:16.616Z,53.50
2017-09-13T16:45:46.036Z,35.73
2017-09-13T16:48:14.495Z,40.60
2017-09-13T16:50:43.696Z,46.90
2017-09-13T16:53:13.332Z,49.10
2017-09-13T16:55:42.776Z,41.17
2017-09-13T16:58:10.834Z,42.50
2017-09-13T17:00:39.088Z,44.13
2017-09-13T17:03:07.205Z,44.70
2017-09-13T17:05:35.892Z,44.03
2017-09-13T17:08:04.609Z,36.00
2017-09-13T17:10:33.101Z,40.93
2017-09-13T17:13:02.497Z,42.43
2017-09-13T17:15:31.636Z,51.30
2017-09-13T17:18:00.168Z,52.50
2017-09-13T17:20:28.715Z,44.67
2017-09-13T17:22:57.297Z,44.23
2017-09-13T17:25:25.898Z,50.67
2017-09-13T17:27:55.281Z,38.77
2017-09-13T17:30:24.097Z,44.90
2017-09-13T17:32:52.237Z,46.10
2017-09-13T17:35:20.987Z,39.07
2017-09-13T17:37:50.590Z,47.33
2017-09-13T17:40:19.028Z,43.20
2017-09-13T17:42:47.629Z,42.03
2017-09-13T17:45:16.239Z,59.73
2017-09-13T17:47:45.311Z,35.80
2017-09-13T17:50:14.057Z,42.70
2017-09-13T17:52:42.548Z,50.20
2017-09-13T17:55:11.077Z,47.90
2017-09-13T17:57:39.833Z,45.53
2017-09-13T18:00:07.984Z,41.00
2017-09-13T18:02:36.720Z,48.23
2017-09-13T18:05:04.781Z,47.10
2017-09-13T18:07:33.480Z,39.10
2017-09-13T18:10:01.520Z,51.97
2017-09-13T18:12:29.932Z,44.97
2017-09-13T18:14:58.164Z,46.20
2017-09-13T18:17:27.672Z,42.13
2017-09-13T18:19:56.357Z,35.07
2017-09-13T18:22:25.937Z,39.67
2017-09-13T18:24:55.317Z,39.70
2017-09-13T18:27:23.924Z,50.53
2017-09-13T18:29:53.312Z,42.53
2017-09-13T18:32:21.992Z,46.97
2017-09-13T18:34:50.403Z,32.63
2017-09-13T18:37:19.408Z,42.23
2017-09-13T18:39:48.552Z,42.13
2017-09-13T18:42:17.237Z,42.87
2017-09-13T18:44:45.736Z,40.50
2017-09-13T18:47:14.390Z,44.80
2017-09-13T18:49:44.764Z,41.70
2017-09-13T18:52:13.509Z,46.83
2017-09-13T18:54:42.147Z,40.27
2017-09-13T18:57:10.968Z,48.53
2017-09-13T18:59:39.615Z,46.60
2017-09-13T19:02:08.112Z,40.50
2017-09-13T19:04:36.761Z,43.87
2017-09-13T19:07:05.539Z,46.50
2017-09-13T19:09:34.076Z,39.00
2017-09-13T19:12:03.216Z,46.77
2017-09-13T19:14:31.924Z,39.00
2017-09-13T19:17:00.545Z,41.73
2017-09-13T19:19:29.182Z,50.67
2017-09-13T19:21:57.319Z,39.87
2017-09-13T19:24:26.858Z,35.20
2017-09-13T19:26:55.368Z,41.00
2017-09-13T19:29:24.048Z,54.67
2017-09-13T19:31:52.612Z,43.40
2017-09-13T19:34:21.152Z,37.43
2017-09-13T19:36:50.447Z,43.33
2017-09-13T19:39:19.311Z,49.30
2017-09-13T19:41:47.355Z,41.13
2017-09-13T19:44:16.103Z,49.23
2017-09-13T19:46:44.660Z,43.50
2017-09-13T19:49:13.339Z,53.90
2017-09-13T19:51:42.218Z,42.00
2017-09-13T19:54:10.703Z,41.17
2017-09-13T19:56:39.212Z,38.00
2017-09-13T19:59:07.988Z,50.57
2017-09-13T20:01:36.732Z,44.53
2017-09-13T20:04:05.141Z,46.00
2017-09-13T20:06:34.084Z,52.07
2017-09-13T20:09:02.664Z,50.30
2017-09-13T20:11:31.936Z,40.90
2017-09-13T20:14:00.651Z,46.27
2017-09-13T20:16:29.372Z,44.67
2017-09-13T20:18:58.639Z,46.43
2017-09-13T20:21:29.000Z,47.37
2017-09-13T20:23:57.403Z,45.23
2017-09-13T20:26:26.032Z,42.63
2017-09-13T20:28:54.896Z,43.97
2017-09-13T20:31:23.370Z,48.83
2017-09-13T20:33:51.963Z,53.43
2017-09-13T20:36:20.579Z,44.17
2017-09-13T20:38:49.856Z,49.40
2017-09-13T20:41:18.955Z,50.20
2017-09-13T20:43:47.664Z,40.60
2017-09-13T20:46:16.383Z,43.23
2017-09-13T20:48:44.788Z,45.23
2017-09-13T20:51:12.971Z,38.73
2017-09-13T20:53:41.727Z,43.77
2017-09-13T20:56:10.133Z,46.13
2017-09-13T20:58:38.840Z,45.73
2017-09-13T21:01:07.520Z,46.27
2017-09-13T21:03:36.196Z,47.33
2017-09-13T21:06:04.861Z,45.20
2017-09-13T21:08:33.383Z,60.97
2017-09-13T21:11:02.063Z,40.20
2017-09-13T21:13:30.960Z,45.00
2017-09-13T21:15:59.545Z,52.57
2017-09-13T21:18:28.032Z,49.13
2017-09-13T21:20:56.821Z,42.60
2017-09-13T21:23:25.504Z,43.83
2017-09-13T21:25:54.280Z,54.20
2017-09-13T21:28:22.884Z,45.93
2017-09-13T21:30:51.467Z,49.93
2017-09-13T21:33:20.147Z,48.63
2017-09-13T21:35:48.826Z,55.00
2017-09-13T21:38:17.252Z,40.93
2017-09-13T21:40:45.915Z,52.27
2017-09-13T21:43:14.900Z,53.80
2017-09-13T21:45:43.676Z,52.07
2017-09-13T21:48:12.236Z,57.03
2017-09-13T21:50:40.354Z,47.00
2017-09-13T21:53:08.817Z,55.43
2017-09-13T21:55:37.343Z,48.60
2017-09-13T21:58:07.644Z,49.03
2017-09-13T22:00:35.679Z,55.10
2017-09-13T22:03:04.428Z,50.23
2017-09-13T22:05:33.292Z,51.70
2017-09-13T22:08:01.359Z,53.93
2017-09-13T22:10:29.847Z,45.13
2017-09-13T22:12:58.605Z,49.77
2017-09-13T22:15:27.108Z,53.13
2017-09-13T22:17:55.914Z,46.53
2017-09-13T22:20:24.704Z,57.43
2017-09-13T22:22:53.444Z,52.30
2017-09-13T22:25:22.719Z,39.83
2017-09-13T22:27:51.712Z,52.93
2017-09-13T22:30:20.460Z,53.83
2017-09-13T22:32:48.483Z,46.83
2017-09-13T22:35:17.376Z,46.43
2017-09-13T22:37:46.643Z,50.97
2017-09-13T22:40:15.216Z,47.43
2017-09-13T22:42:43.791Z,48.03
2017-09-13T22:45:12.580Z,52.43
2017-09-13T22:47:41.188Z,43.00
2017-09-13T22:50:09.971Z,56.20
2017-09-13T22:52:38.820Z,51.60
2017-09-13T22:55:08.164Z,45.10
2017-09-13T22:57:37.084Z,42.20
2017-09-13T23:00:07.167Z,53.43
2017-09-13T23:02:35.699Z,55.83
2017-09-13T23:05:05.032Z,55.73
2017-09-13T23:07:34.528Z,62.23
2017-09-13T23:10:03.804Z,61.70
2017-09-13T23:12:33.080Z,47.83
2017-09-13T23:15:01.623Z,57.53
2017-09-13T23:17:30.024Z,54.50
2017-09-13T23:19:58.730Z,51.70
2017-09-13T23:22:27.440Z,60.67
2017-09-13T23:24:56.185Z,49.00
2017-09-13T23:27:24.994Z,58.13
2017-09-13T23:29:53.729Z,48.27
2017-09-13T23:32:22.365Z,49.53
2017-09-13T23:34:51.177Z,63.60
2017-09-13T23:37:19.610Z,59.50
2017-09-13T23:39:48.124Z,54.47
2017-09-13T23:42:16.938Z,63.30
2017-09-13T23:44:45.659Z,68.07
2017-09-13T23:47:14.314Z,62.23
2017-09-13T23:49:43.098Z,54.87
2017-09-13T23:52:11.127Z,57.70
2017-09-13T23:54:39.651Z,61.87
2017-09-13T23:57:08.346Z,70.17
2017-09-13T23:59:36.994Z,61.53
